sensor_id;sensor_type;location;lat;lon;timestamp;P1;durP1;ratioP1;P2;durP2;ratioP2
67053;SDS011;53960;51.826;5.850;2022-10-16T00:00:32;10.52;;;3.08;;
67053;SDS011;53960;51.826;5.850;2022-10-16T00:02:59;9.98;;;4.18;;
67053;SDS011;53960;51.826;5.850;2022-10-16T00:05:24;10.27;;;3.80;;
67053;SDS011;53960;51.826;5.850;2022-10-16T00:07:49;11.37;;;3.57;;
67053;SDS011;53960;51.826;5.850;2022-10-16T00:10:15;11.00;;;3.70;;
67053;SDS011;53960;51.826;5.850;2022-10-16T00:12:40;9.33;;;3.70;;
67053;SDS011;53960;51.826;5.850;2022-10-16T00:15:05;13.60;;;3.80;;
67053;SDS011;53960;51.826;5.850;2022-10-16T00:17:31;11.02;;;4.70;;
67053;SDS011;53960;51.826;5.850;2022-10-16T00:19:56;12.40;;;3.57;;
67053;SDS011;53960;51.826;5.850;2022-10-16T00:22:22;10.37;;;3.77;;
67053;SDS011;53960;51.826;5.850;2022-10-16T00:24:47;12.37;;;3.87;;
67053;SDS011;53960;51.826;5.850;2022-10-16T00:27:13;11.83;;;3.80;;
67053;SDS011;53960;51.826;5.850;2022-10-16T00:29:38;9.57;;;3.80;;
67053;SDS011;53960;51.826;5.850;2022-10-16T00:32:03;11.03;;;4.27;;
67053;SDS011;53960;51.826;5.850;2022-10-16T00:34:29;9.00;;;3.77;;
67053;SDS011;53960;51.826;5.850;2022-10-16T00:36:54;9.37;;;3.40;;
67053;SDS011;53960;51.826;5.850;2022-10-16T00:39:19;10.00;;;4.20;;
67053;SDS011;53960;51.826;5.850;2022-10-16T00:41:45;9.13;;;3.90;;
67053;SDS011;53960;51.826;5.850;2022-10-16T00:49:57;11.27;;;4.38;;
67053;SDS011;53960;51.826;5.850;2022-10-16T00:52:27;10.00;;;4.18;;
67053;SDS011;53960;51.826;5.850;2022-10-16T00:54:52;10.77;;;3.77;;
67053;SDS011;53960;51.826;5.850;2022-10-16T00:57:19;13.05;;;4.60;;
67053;SDS011;53960;51.826;5.850;2022-10-16T00:59:44;9.93;;;3.83;;
67053;SDS011;53960;51.826;5.850;2022-10-16T01:02:11;10.00;;;4.53;;
67053;SDS011;53960;51.826;5.850;2022-10-16T01:04:49;11.38;;;4.60;;
67053;SDS011;53960;51.826;5.850;2022-10-16T01:10:09;10.35;;;4.40;;
67053;SDS011;53960;51.826;5.850;2022-10-16T01:18:14;10.50;;;4.20;;
67053;SDS011;53960;51.826;5.850;2022-10-16T01:20:51;11.50;;;4.30;;
67053;SDS011;53960;51.826;5.850;2022-10-16T01:28:53;11.40;;;4.47;;
67053;SDS011;53960;51.826;5.850;2022-10-16T01:31:39;12.02;;;4.13;;
67053;SDS011;53960;51.826;5.850;2022-10-16T01:34:10;11.10;;;4.37;;
67053;SDS011;53960;51.826;5.850;2022-10-16T01:36:55;11.25;;;4.07;;
67053;SDS011;53960;51.826;5.850;2022-10-16T01:39:28;10.48;;;4.10;;
67053;SDS011;53960;51.826;5.850;2022-10-16T01:41:59;11.05;;;4.07;;
67053;SDS011;53960;51.826;5.850;2022-10-16T01:44:31;10.50;;;3.90;;
67053;SDS011;53960;51.826;5.850;2022-10-16T01:46:58;9.90;;;4.03;;
67053;SDS011;53960;51.826;5.850;2022-10-16T01:49:25;9.50;;;4.30;;
67053;SDS011;53960;51.826;5.850;2022-10-16T01:51:55;8.80;;;3.65;;
67053;SDS011;53960;51.826;5.850;2022-10-16T01:54:25;9.93;;;3.65;;
67053;SDS011;53960;51.826;5.850;2022-10-16T01:56:53;11.73;;;4.30;;
67053;SDS011;53960;51.826;5.850;2022-10-16T01:59:21;8.47;;;3.60;;
67053;SDS011;53960;51.826;5.850;2022-10-16T02:01:51;10.85;;;3.60;;
67053;SDS011;53960;51.826;5.850;2022-10-16T02:04:32;8.68;;;3.30;;
67053;SDS011;53960;51.826;5.850;2022-10-16T02:07:02;12.75;;;3.60;;
67053;SDS011;53960;51.826;5.850;2022-10-16T02:09:29;10.47;;;3.10;;
67053;SDS011;53960;51.826;5.850;2022-10-16T02:11:55;11.00;;;3.40;;
67053;SDS011;53960;51.826;5.850;2022-10-16T02:14:24;9.13;;;3.25;;
67053;SDS011;53960;51.826;5.850;2022-10-16T02:16:50;8.82;;;2.95;;
67053;SDS011;53960;51.826;5.850;2022-10-16T02:19:16;15.77;;;3.77;;
67053;SDS011;53960;51.826;5.850;2022-10-16T02:21:54;12.48;;;3.55;;
67053;SDS011;53960;51.826;5.850;2022-10-16T02:29:40;8.43;;;2.60;;
67053;SDS011;53960;51.826;5.850;2022-10-16T02:32:10;9.27;;;2.90;;
67053;SDS011;53960;51.826;5.850;2022-10-16T02:34:38;8.00;;;2.85;;
67053;SDS011;53960;51.826;5.850;2022-10-16T02:37:04;7.03;;;2.50;;
67053;SDS011;53960;51.826;5.850;2022-10-16T02:39:32;7.63;;;2.53;;
67053;SDS011;53960;51.826;5.850;2022-10-16T02:41:58;8.30;;;2.23;;
67053;SDS011;53960;51.826;5.850;2022-10-16T02:44:23;8.30;;;2.60;;
67053;SDS011;53960;51.826;5.850;2022-10-16T02:46:48;9.15;;;2.55;;
67053;SDS011;53960;51.826;5.850;2022-10-16T02:49:14;7.90;;;2.53;;
67053;SDS011;53960;51.826;5.850;2022-10-16T02:51:39;7.77;;;2.30;;
67053;SDS011;53960;51.826;5.850;2022-10-16T02:54:04;10.43;;;2.40;;
67053;SDS011;53960;51.826;5.850;2022-10-16T02:56:30;7.37;;;2.27;;
67053;SDS011;53960;51.826;5.850;2022-10-16T02:58:55;7.57;;;2.08;;
67053;SDS011;53960;51.826;5.850;2022-10-16T03:01:21;7.77;;;2.07;;
67053;SDS011;53960;51.826;5.850;2022-10-16T03:03:46;8.17;;;2.70;;
67053;SDS011;53960;51.826;5.850;2022-10-16T03:06:12;8.82;;;2.53;;
67053;SDS011;53960;51.826;5.850;2022-10-16T03:08:37;6.97;;;2.50;;
67053;SDS011;53960;51.826;5.850;2022-10-16T03:11:02;9.73;;;2.30;;
67053;SDS011;53960;51.826;5.850;2022-10-16T03:13:28;8.07;;;3.10;;
67053;SDS011;53960;51.826;5.850;2022-10-16T03:15:53;8.90;;;2.07;;
67053;SDS011;53960;51.826;5.850;2022-10-16T03:18:19;9.25;;;2.30;;
67053;SDS011;53960;51.826;5.850;2022-10-16T03:20:44;11.60;;;2.27;;
67053;SDS011;53960;51.826;5.850;2022-10-16T03:23:09;8.20;;;2.47;;
67053;SDS011;53960;51.826;5.850;2022-10-16T03:25:35;8.50;;;1.92;;
67053;SDS011;53960;51.826;5.850;2022-10-16T03:28:00;7.17;;;2.20;;
67053;SDS011;53960;51.826;5.850;2022-10-16T03:30:26;7.37;;;2.50;;
67053;SDS011;53960;51.826;5.850;2022-10-16T03:32:51;8.77;;;2.45;;
67053;SDS011;53960;51.826;5.850;2022-10-16T03:35:19;9.43;;;2.60;;
67053;SDS011;53960;51.826;5.850;2022-10-16T03:37:45;6.70;;;2.53;;
67053;SDS011;53960;51.826;5.850;2022-10-16T03:40:10;7.60;;;2.70;;
67053;SDS011;53960;51.826;5.850;2022-10-16T03:42:36;8.02;;;2.35;;
67053;SDS011;53960;51.826;5.850;2022-10-16T03:45:01;7.77;;;2.43;;
67053;SDS011;53960;51.826;5.850;2022-10-16T03:47:26;6.73;;;2.20;;
67053;SDS011;53960;51.826;5.850;2022-10-16T03:49:52;7.87;;;2.73;;
67053;SDS011;53960;51.826;5.850;2022-10-16T03:52:17;8.50;;;2.90;;
67053;SDS011;53960;51.826;5.850;2022-10-16T03:54:42;7.43;;;2.30;;
67053;SDS011;53960;51.826;5.850;2022-10-16T03:57:08;7.70;;;2.40;;
67053;SDS011;53960;51.826;5.850;2022-10-16T03:59:33;7.77;;;2.43;;
67053;SDS011;53960;51.826;5.850;2022-10-16T04:01:59;7.23;;;2.20;;
67053;SDS011;53960;51.826;5.850;2022-10-16T04:04:24;7.47;;;2.47;;
67053;SDS011;53960;51.826;5.850;2022-10-16T04:06:50;8.27;;;2.33;;
67053;SDS011;53960;51.826;5.850;2022-10-16T04:09:15;7.77;;;2.23;;
67053;SDS011;53960;51.826;5.850;2022-10-16T04:11:40;7.77;;;2.37;;
67053;SDS011;53960;51.826;5.850;2022-10-16T04:14:06;8.80;;;2.50;;
67053;SDS011;53960;51.826;5.850;2022-10-16T04:16:31;7.63;;;2.33;;
67053;SDS011;53960;51.826;5.850;2022-10-16T04:18:56;8.47;;;2.57;;
67053;SDS011;53960;51.826;5.850;2022-10-16T04:21:22;7.70;;;2.40;;
67053;SDS011;53960;51.826;5.850;2022-10-16T04:23:47;7.17;;;2.30;;
67053;SDS011;53960;51.826;5.850;2022-10-16T04:26:13;9.63;;;2.30;;
67053;SDS011;53960;51.826;5.850;2022-10-16T04:28:38;9.80;;;2.37;;
67053;SDS011;53960;51.826;5.850;2022-10-16T04:31:04;6.97;;;2.17;;
67053;SDS011;53960;51.826;5.850;2022-10-16T04:33:30;6.90;;;2.40;;
67053;SDS011;53960;51.826;5.850;2022-10-16T04:36:02;6.87;;;2.10;;
67053;SDS011;53960;51.826;5.850;2022-10-16T04:38:28;6.82;;;2.25;;
67053;SDS011;53960;51.826;5.850;2022-10-16T04:40:54;7.20;;;2.20;;
67053;SDS011;53960;51.826;5.850;2022-10-16T04:43:20;7.80;;;2.40;;
67053;SDS011;53960;51.826;5.850;2022-10-16T04:45:46;7.87;;;2.27;;
67053;SDS011;53960;51.826;5.850;2022-10-16T04:48:11;7.82;;;2.10;;
67053;SDS011;53960;51.826;5.850;2022-10-16T04:50:37;6.97;;;2.10;;
67053;SDS011;53960;51.826;5.850;2022-10-16T04:53:02;7.57;;;2.30;;
67053;SDS011;53960;51.826;5.850;2022-10-16T04:55:28;8.23;;;2.60;;
67053;SDS011;53960;51.826;5.850;2022-10-16T04:57:53;7.28;;;2.10;;
67053;SDS011;53960;51.826;5.850;2022-10-16T05:00:18;8.90;;;2.47;;
67053;SDS011;53960;51.826;5.850;2022-10-16T05:02:44;7.77;;;2.47;;
67053;SDS011;53960;51.826;5.850;2022-10-16T05:05:09;10.20;;;2.47;;
67053;SDS011;53960;51.826;5.850;2022-10-16T05:07:34;7.97;;;2.33;;
67053;SDS011;53960;51.826;5.850;2022-10-16T05:10:00;8.60;;;2.27;;
67053;SDS011;53960;51.826;5.850;2022-10-16T05:12:25;7.30;;;2.33;;
67053;SDS011;53960;51.826;5.850;2022-10-16T05:14:51;7.45;;;2.65;;
67053;SDS011;53960;51.826;5.850;2022-10-16T05:17:16;8.50;;;2.60;;
67053;SDS011;53960;51.826;5.850;2022-10-16T05:19:41;8.80;;;2.50;;
67053;SDS011;53960;51.826;5.850;2022-10-16T05:22:06;7.50;;;2.23;;
67053;SDS011;53960;51.826;5.850;2022-10-16T05:24:32;8.53;;;2.57;;
67053;SDS011;53960;51.826;5.850;2022-10-16T05:26:57;8.53;;;2.40;;
67053;SDS011;53960;51.826;5.850;2022-10-16T05:29:22;7.00;;;2.40;;
67053;SDS011;53960;51.826;5.850;2022-10-16T05:31:53;8.17;;;2.47;;
67053;SDS011;53960;51.826;5.850;2022-10-16T05:34:19;7.53;;;2.30;;
67053;SDS011;53960;51.826;5.850;2022-10-16T05:36:45;8.85;;;2.80;;
67053;SDS011;53960;51.826;5.850;2022-10-16T05:39:11;7.97;;;2.60;;
67053;SDS011;53960;51.826;5.850;2022-10-16T05:41:37;7.03;;;2.23;;
67053;SDS011;53960;51.826;5.850;2022-10-16T05:44:05;7.00;;;2.30;;
67053;SDS011;53960;51.826;5.850;2022-10-16T05:46:31;10.25;;;2.78;;
67053;SDS011;53960;51.826;5.850;2022-10-16T05:48:57;7.45;;;2.53;;
67053;SDS011;53960;51.826;5.850;2022-10-16T05:51:22;7.70;;;2.53;;
67053;SDS011;53960;51.826;5.850;2022-10-16T05:53:48;8.13;;;2.40;;
67053;SDS011;53960;51.826;5.850;2022-10-16T05:56:13;10.10;;;3.00;;
67053;SDS011;53960;51.826;5.850;2022-10-16T05:58:38;7.03;;;2.40;;
67053;SDS011;53960;51.826;5.850;2022-10-16T06:01:10;8.43;;;2.53;;
67053;SDS011;53960;51.826;5.850;2022-10-16T06:03:36;8.33;;;3.13;;
67053;SDS011;53960;51.826;5.850;2022-10-16T06:06:16;8.52;;;2.38;;
67053;SDS011;53960;51.826;5.850;2022-10-16T06:08:43;9.45;;;3.13;;
67053;SDS011;53960;51.826;5.850;2022-10-16T06:11:11;8.67;;;3.17;;
67053;SDS011;53960;51.826;5.850;2022-10-16T06:13:38;9.38;;;2.85;;
67053;SDS011;53960;51.826;5.850;2022-10-16T06:16:06;11.57;;;2.60;;
67053;SDS011;53960;51.826;5.850;2022-10-16T06:18:32;9.20;;;2.58;;
67053;SDS011;53960;51.826;5.850;2022-10-16T06:20:57;8.53;;;3.07;;
67053;SDS011;53960;51.826;5.850;2022-10-16T06:23:23;8.07;;;2.80;;
67053;SDS011;53960;51.826;5.850;2022-10-16T06:25:49;7.50;;;2.50;;
67053;SDS011;53960;51.826;5.850;2022-10-16T06:28:14;7.90;;;2.87;;
67053;SDS011;53960;51.826;5.850;2022-10-16T06:30:40;9.73;;;2.60;;
67053;SDS011;53960;51.826;5.850;2022-10-16T06:33:06;10.25;;;2.92;;
67053;SDS011;53960;51.826;5.850;2022-10-16T06:35:31;9.70;;;2.60;;
67053;SDS011;53960;51.826;5.850;2022-10-16T06:37:57;7.40;;;2.55;;
67053;SDS011;53960;51.826;5.850;2022-10-16T06:40:22;8.37;;;2.70;;
67053;SDS011;53960;51.826;5.850;2022-10-16T06:42:48;9.73;;;2.73;;
67053;SDS011;53960;51.826;5.850;2022-10-16T06:45:13;8.93;;;2.57;;
67053;SDS011;53960;51.826;5.850;2022-10-16T06:47:38;8.03;;;2.70;;
67053;SDS011;53960;51.826;5.850;2022-10-16T06:50:04;9.33;;;2.90;;
67053;SDS011;53960;51.826;5.850;2022-10-16T06:52:31;8.45;;;2.83;;
67053;SDS011;53960;51.826;5.850;2022-10-16T06:54:57;8.57;;;3.10;;
67053;SDS011;53960;51.826;5.850;2022-10-16T06:57:23;9.73;;;3.17;;
67053;SDS011;53960;51.826;5.850;2022-10-16T06:59:48;11.37;;;3.00;;
67053;SDS011;53960;51.826;5.850;2022-10-16T07:02:13;9.07;;;3.03;;
67053;SDS011;53960;51.826;5.850;2022-10-16T07:04:39;10.17;;;3.30;;
67053;SDS011;53960;51.826;5.850;2022-10-16T07:07:04;9.00;;;3.07;;
67053;SDS011;53960;51.826;5.850;2022-10-16T07:09:29;10.33;;;3.37;;
67053;SDS011;53960;51.826;5.850;2022-10-16T07:11:54;8.57;;;2.63;;
67053;SDS011;53960;51.826;5.850;2022-10-16T07:14:21;9.03;;;2.70;;
67053;SDS011;53960;51.826;5.850;2022-10-16T07:16:47;8.43;;;2.40;;
67053;SDS011;53960;51.826;5.850;2022-10-16T07:19:13;8.05;;;2.70;;
67053;SDS011;53960;51.826;5.850;2022-10-16T07:21:40;7.78;;;2.55;;
67053;SDS011;53960;51.826;5.850;2022-10-16T07:24:07;7.53;;;2.53;;
67053;SDS011;53960;51.826;5.850;2022-10-16T07:26:37;9.67;;;2.87;;
67053;SDS011;53960;51.826;5.850;2022-10-16T07:29:04;7.15;;;2.55;;
67053;SDS011;53960;51.826;5.850;2022-10-16T07:31:36;8.20;;;2.70;;
67053;SDS011;53960;51.826;5.850;2022-10-16T07:34:01;10.13;;;2.40;;
67053;SDS011;53960;51.826;5.850;2022-10-16T07:36:26;8.17;;;2.73;;
67053;SDS011;53960;51.826;5.850;2022-10-16T07:38:52;9.48;;;3.00;;
67053;SDS011;53960;51.826;5.850;2022-10-16T07:41:19;7.13;;;2.40;;
67053;SDS011;53960;51.826;5.850;2022-10-16T07:43:45;8.00;;;2.40;;
67053;SDS011;53960;51.826;5.850;2022-10-16T07:46:11;8.57;;;3.33;;
67053;SDS011;53960;51.826;5.850;2022-10-16T07:48:36;9.13;;;2.70;;
67053;SDS011;53960;51.826;5.850;2022-10-16T07:51:03;10.00;;;2.87;;
67053;SDS011;53960;51.826;5.850;2022-10-16T07:53:29;8.23;;;2.35;;
67053;SDS011;53960;51.826;5.850;2022-10-16T07:55:58;7.73;;;2.83;;
67053;SDS011;53960;51.826;5.850;2022-10-16T07:58:28;8.43;;;2.53;;
67053;SDS011;53960;51.826;5.850;2022-10-16T08:00:54;7.63;;;2.50;;
67053;SDS011;53960;51.826;5.850;2022-10-16T08:03:20;9.47;;;3.13;;
67053;SDS011;53960;51.826;5.850;2022-10-16T08:05:45;7.90;;;2.30;;
67053;SDS011;53960;51.826;5.850;2022-10-16T08:08:12;9.43;;;2.45;;
67053;SDS011;53960;51.826;5.850;2022-10-16T08:10:39;9.17;;;2.27;;
67053;SDS011;53960;51.826;5.850;2022-10-16T08:13:05;7.53;;;2.53;;
67053;SDS011;53960;51.826;5.850;2022-10-16T08:15:31;7.60;;;2.38;;
67053;SDS011;53960;51.826;5.850;2022-10-16T08:17:57;10.47;;;2.27;;
67053;SDS011;53960;51.826;5.850;2022-10-16T08:20:23;9.05;;;2.55;;
67053;SDS011;53960;51.826;5.850;2022-10-16T08:22:49;11.70;;;2.50;;
67053;SDS011;53960;51.826;5.850;2022-10-16T08:25:14;9.50;;;2.10;;
67053;SDS011;53960;51.826;5.850;2022-10-16T08:27:40;10.48;;;2.20;;
67053;SDS011;53960;51.826;5.850;2022-10-16T08:30:05;8.20;;;2.13;;
67053;SDS011;53960;51.826;5.850;2022-10-16T08:32:31;6.87;;;2.07;;
67053;SDS011;53960;51.826;5.850;2022-10-16T08:34:57;10.15;;;2.30;;
67053;SDS011;53960;51.826;5.850;2022-10-16T08:37:22;7.57;;;1.93;;
67053;SDS011;53960;51.826;5.850;2022-10-16T08:39:48;7.33;;;1.90;;
67053;SDS011;53960;51.826;5.850;2022-10-16T08:42:19;7.63;;;1.98;;
67053;SDS011;53960;51.826;5.850;2022-10-16T08:45:12;9.63;;;2.03;;
67053;SDS011;53960;51.826;5.850;2022-10-16T08:47:58;9.68;;;1.85;;
67053;SDS011;53960;51.826;5.850;2022-10-16T08:50:31;6.97;;;1.77;;
67053;SDS011;53960;51.826;5.850;2022-10-16T08:53:01;8.70;;;2.10;;
67053;SDS011;53960;51.826;5.850;2022-10-16T09:00:41;7.63;;;1.98;;
67053;SDS011;53960;51.826;5.850;2022-10-16T09:08:33;9.32;;;2.08;;
67053;SDS011;53960;51.826;5.850;2022-10-16T09:17:18;8.57;;;1.60;;
67053;SDS011;53960;51.826;5.850;2022-10-16T09:20:19;8.00;;;2.10;;
67053;SDS011;53960;51.826;5.850;2022-10-16T09:23:08;6.07;;;1.60;;
67053;SDS011;53960;51.826;5.850;2022-10-16T09:25:38;10.83;;;2.23;;
67053;SDS011;53960;51.826;5.850;2022-10-16T09:28:07;8.63;;;2.15;;
67053;SDS011;53960;51.826;5.850;2022-10-16T09:30:34;9.13;;;1.80;;
67053;SDS011;53960;51.826;5.850;2022-10-16T09:33:00;9.20;;;1.57;;
67053;SDS011;53960;51.826;5.850;2022-10-16T09:35:59;7.50;;;1.80;;
67053;SDS011;53960;51.826;5.850;2022-10-16T09:40:49;9.02;;;1.70;;
67053;SDS011;53960;51.826;5.850;2022-10-16T09:45:58;7.13;;;1.90;;
67053;SDS011;53960;51.826;5.850;2022-10-16T09:48:31;8.48;;;2.33;;
67053;SDS011;53960;51.826;5.850;2022-10-16T09:51:02;9.77;;;2.00;;
67053;SDS011;53960;51.826;5.850;2022-10-16T09:53:39;9.55;;;1.90;;
67053;SDS011;53960;51.826;5.850;2022-10-16T09:56:09;8.68;;;2.40;;
67053;SDS011;53960;51.826;5.850;2022-10-16T09:58:49;7.60;;;1.83;;
67053;SDS011;53960;51.826;5.850;2022-10-16T10:01:16;8.65;;;2.25;;
67053;SDS011;53960;51.826;5.850;2022-10-16T10:03:42;8.20;;;1.70;;
67053;SDS011;53960;51.826;5.850;2022-10-16T10:06:19;12.90;;;1.85;;
67053;SDS011;53960;51.826;5.850;2022-10-16T10:11:57;9.68;;;2.10;;
67053;SDS011;53960;51.826;5.850;2022-10-16T10:14:27;13.55;;;2.28;;
67053;SDS011;53960;51.826;5.850;2022-10-16T10:17:07;11.70;;;1.80;;
67053;SDS011;53960;51.826;5.850;2022-10-16T10:22:50;12.05;;;2.58;;
67053;SDS011;53960;51.826;5.850;2022-10-16T10:25:12;10.70;;;1.73;;
67053;SDS011;53960;51.826;5.850;2022-10-16T10:27:40;11.00;;;1.95;;
67053;SDS011;53960;51.826;5.850;2022-10-16T10:33:08;13.65;;;1.95;;
67053;SDS011;53960;51.826;5.850;2022-10-16T10:38:11;10.68;;;1.75;;
67053;SDS011;53960;51.826;5.850;2022-10-16T10:46:24;12.48;;;1.88;;
67053;SDS011;53960;51.826;5.850;2022-10-16T10:54:57;11.77;;;1.60;;
67053;SDS011;53960;51.826;5.850;2022-10-16T11:00:40;12.35;;;1.88;;
67053;SDS011;53960;51.826;5.850;2022-10-16T11:06:12;10.10;;;1.70;;
67053;SDS011;53960;51.826;5.850;2022-10-16T11:08:54;11.68;;;1.90;;
67053;SDS011;53960;51.826;5.850;2022-10-16T11:19:31;10.88;;;1.63;;
67053;SDS011;53960;51.826;5.850;2022-10-16T11:24:44;11.83;;;1.47;;
67053;SDS011;53960;51.826;5.850;2022-10-16T11:27:17;9.35;;;1.63;;
67053;SDS011;53960;51.826;5.850;2022-10-16T11:29:58;10.25;;;1.60;;
67053;SDS011;53960;51.826;5.850;2022-10-16T11:32:31;7.93;;;1.48;;
67053;SDS011;53960;51.826;5.850;2022-10-16T11:36:03;13.32;;;1.65;;
67053;SDS011;53960;51.826;5.850;2022-10-16T11:40:37;10.52;;;1.58;;
67053;SDS011;53960;51.826;5.850;2022-10-16T11:45:42;11.10;;;1.58;;
67053;SDS011;53960;51.826;5.850;2022-10-16T11:48:23;10.02;;;1.40;;
67053;SDS011;53960;51.826;5.850;2022-10-16T11:56:13;11.40;;;1.83;;
67053;SDS011;53960;51.826;5.850;2022-10-16T11:58:45;10.32;;;2.03;;
67053;SDS011;53960;51.826;5.850;2022-10-16T12:07:03;13.30;;;1.70;;
67053;SDS011;53960;51.826;5.850;2022-10-16T12:09:31;9.38;;;1.70;;
67053;SDS011;53960;51.826;5.850;2022-10-16T12:11:59;10.40;;;1.70;;
67053;SDS011;53960;51.826;5.850;2022-10-16T12:14:38;8.93;;;1.60;;
67053;SDS011;53960;51.826;5.850;2022-10-16T12:17:27;10.60;;;1.50;;
67053;SDS011;53960;51.826;5.850;2022-10-16T12:22:41;10.25;;;1.65;;
67053;SDS011;53960;51.826;5.850;2022-10-16T12:25:19;10.63;;;1.60;;
67053;SDS011;53960;51.826;5.850;2022-10-16T12:27:53;12.48;;;2.22;;
67053;SDS011;53960;51.826;5.850;2022-10-16T12:30:22;10.45;;;1.70;;
67053;SDS011;53960;51.826;5.850;2022-10-16T12:32:53;9.27;;;1.60;;
67053;SDS011;53960;51.826;5.850;2022-10-16T12:35:23;12.93;;;1.65;;
67053;SDS011;53960;51.826;5.850;2022-10-16T12:37:52;10.10;;;1.40;;
67053;SDS011;53960;51.826;5.850;2022-10-16T12:40:28;11.07;;;1.52;;
67053;SDS011;53960;51.826;5.850;2022-10-16T12:42:55;8.80;;;1.70;;
67053;SDS011;53960;51.826;5.850;2022-10-16T12:45:31;8.07;;;1.47;;
67053;SDS011;53960;51.826;5.850;2022-10-16T12:47:59;11.48;;;1.65;;
67053;SDS011;53960;51.826;5.850;2022-10-16T12:50:36;10.20;;;1.42;;
67053;SDS011;53960;51.826;5.850;2022-10-16T12:53:16;8.75;;;1.52;;
67053;SDS011;53960;51.826;5.850;2022-10-16T12:55:50;9.40;;;1.80;;
67053;SDS011;53960;51.826;5.850;2022-10-16T12:58:37;10.20;;;1.73;;
67053;SDS011;53960;51.826;5.850;2022-10-16T13:01:20;10.57;;;1.90;;
67053;SDS011;53960;51.826;5.850;2022-10-16T13:09:59;9.38;;;1.73;;
67053;SDS011;53960;51.826;5.850;2022-10-16T13:15:33;11.50;;;1.75;;
67053;SDS011;53960;51.826;5.850;2022-10-16T13:18:13;8.95;;;1.65;;
67053;SDS011;53960;51.826;5.850;2022-10-16T13:26:23;10.03;;;1.50;;
67053;SDS011;53960;51.826;5.850;2022-10-16T13:28:59;9.07;;;1.42;;
67053;SDS011;53960;51.826;5.850;2022-10-16T13:31:26;12.02;;;1.60;;
67053;SDS011;53960;51.826;5.850;2022-10-16T13:33:52;8.57;;;1.50;;
67053;SDS011;53960;51.826;5.850;2022-10-16T13:38:46;11.27;;;1.50;;
67053;SDS011;53960;51.826;5.850;2022-10-16T13:41:13;9.53;;;2.13;;
67053;SDS011;53960;51.826;5.850;2022-10-16T13:43:41;12.52;;;1.95;;
67053;SDS011;53960;51.826;5.850;2022-10-16T13:46:14;10.20;;;1.75;;
67053;SDS011;53960;51.826;5.850;2022-10-16T13:48:56;12.48;;;2.42;;
67053;SDS011;53960;51.826;5.850;2022-10-16T13:51:25;8.35;;;1.38;;
67053;SDS011;53960;51.826;5.850;2022-10-16T13:53:51;8.43;;;1.53;;
67053;SDS011;53960;51.826;5.850;2022-10-16T13:56:18;9.77;;;1.58;;
67053;SDS011;53960;51.826;5.850;2022-10-16T13:58:46;11.52;;;1.60;;
67053;SDS011;53960;51.826;5.850;2022-10-16T14:01:28;8.40;;;1.33;;
67053;SDS011;53960;51.826;5.850;2022-10-16T14:04:14;9.00;;;1.48;;
67053;SDS011;53960;51.826;5.850;2022-10-16T14:06:40;9.32;;;1.58;;
67053;SDS011;53960;51.826;5.850;2022-10-16T14:09:08;13.13;;;2.08;;
67053;SDS011;53960;51.826;5.850;2022-10-16T14:11:44;12.17;;;1.50;;
67053;SDS011;53960;51.826;5.850;2022-10-16T14:14:13;13.60;;;1.42;;
67053;SDS011;53960;51.826;5.850;2022-10-16T14:16:40;10.73;;;1.42;;
67053;SDS011;53960;51.826;5.850;2022-10-16T14:19:13;14.23;;;2.55;;
67053;SDS011;53960;51.826;5.850;2022-10-16T14:21:43;8.35;;;1.80;;
67053;SDS011;53960;51.826;5.850;2022-10-16T14:24:13;10.20;;;1.97;;
67053;SDS011;53960;51.826;5.850;2022-10-16T14:26:46;10.40;;;2.03;;
67053;SDS011;53960;51.826;5.850;2022-10-16T14:29:14;11.68;;;1.52;;
67053;SDS011;53960;51.826;5.850;2022-10-16T14:31:42;7.10;;;1.20;;
67053;SDS011;53960;51.826;5.850;2022-10-16T14:34:25;11.32;;;1.52;;
67053;SDS011;53960;51.826;5.850;2022-10-16T14:37:06;9.18;;;1.95;;
67053;SDS011;53960;51.826;5.850;2022-10-16T14:39:38;9.63;;;1.67;;
67053;SDS011;53960;51.826;5.850;2022-10-16T14:42:04;12.18;;;1.88;;
67053;SDS011;53960;51.826;5.850;2022-10-16T14:44:41;10.67;;;1.50;;
67053;SDS011;53960;51.826;5.850;2022-10-16T14:47:12;9.32;;;1.88;;
67053;SDS011;53960;51.826;5.850;2022-10-16T14:49:39;9.00;;;1.47;;
67053;SDS011;53960;51.826;5.850;2022-10-16T14:52:10;11.13;;;1.65;;
67053;SDS011;53960;51.826;5.850;2022-10-16T14:54:37;8.82;;;1.67;;
67053;SDS011;53960;51.826;5.850;2022-10-16T14:57:02;10.73;;;1.53;;
67053;SDS011;53960;51.826;5.850;2022-10-16T14:59:38;8.70;;;1.60;;
67053;SDS011;53960;51.826;5.850;2022-10-16T15:02:18;9.45;;;1.92;;
67053;SDS011;53960;51.826;5.850;2022-10-16T15:04:47;6.78;;;1.38;;
67053;SDS011;53960;51.826;5.850;2022-10-16T15:07:13;9.50;;;1.47;;
67053;SDS011;53960;51.826;5.850;2022-10-16T15:09:38;7.13;;;1.37;;
67053;SDS011;53960;51.826;5.850;2022-10-16T15:12:03;10.50;;;1.73;;
67053;SDS011;53960;51.826;5.850;2022-10-16T15:14:29;10.10;;;1.70;;
67053;SDS011;53960;51.826;5.850;2022-10-16T15:16:54;8.70;;;1.57;;
67053;SDS011;53960;51.826;5.850;2022-10-16T15:19:20;9.97;;;2.07;;
67053;SDS011;53960;51.826;5.850;2022-10-16T15:21:45;11.57;;;1.50;;
67053;SDS011;53960;51.826;5.850;2022-10-16T15:24:11;10.63;;;2.03;;
67053;SDS011;53960;51.826;5.850;2022-10-16T15:26:38;10.95;;;2.03;;
67053;SDS011;53960;51.826;5.850;2022-10-16T15:29:04;9.07;;;1.48;;
67053;SDS011;53960;51.826;5.850;2022-10-16T15:31:29;9.90;;;1.87;;
67053;SDS011;53960;51.826;5.850;2022-10-16T15:33:55;11.15;;;1.73;;
67053;SDS011;53960;51.826;5.850;2022-10-16T15:36:29;9.43;;;1.60;;
67053;SDS011;53960;51.826;5.850;2022-10-16T15:38:56;10.65;;;2.10;;
67053;SDS011;53960;51.826;5.850;2022-10-16T15:41:22;8.48;;;1.65;;
67053;SDS011;53960;51.826;5.850;2022-10-16T15:43:48;11.13;;;1.80;;
67053;SDS011;53960;51.826;5.850;2022-10-16T15:46:14;7.90;;;1.70;;
67053;SDS011;53960;51.826;5.850;2022-10-16T15:48:41;12.18;;;2.75;;
67053;SDS011;53960;51.826;5.850;2022-10-16T15:51:08;8.10;;;1.65;;
67053;SDS011;53960;51.826;5.850;2022-10-16T15:53:34;9.83;;;1.50;;
67053;SDS011;53960;51.826;5.850;2022-10-16T15:56:07;11.05;;;1.80;;
67053;SDS011;53960;51.826;5.850;2022-10-16T15:58:34;8.32;;;1.38;;
67053;SDS011;53960;51.826;5.850;2022-10-16T16:00:59;10.10;;;1.93;;
67053;SDS011;53960;51.826;5.850;2022-10-16T16:03:26;11.32;;;1.70;;
67053;SDS011;53960;51.826;5.850;2022-10-16T16:05:52;10.40;;;1.50;;
67053;SDS011;53960;51.826;5.850;2022-10-16T16:08:18;8.07;;;1.80;;
67053;SDS011;53960;51.826;5.850;2022-10-16T16:10:43;8.27;;;1.40;;
67053;SDS011;53960;51.826;5.850;2022-10-16T16:13:09;11.97;;;2.17;;
67053;SDS011;53960;51.826;5.850;2022-10-16T16:15:37;7.22;;;1.33;;
67053;SDS011;53960;51.826;5.850;2022-10-16T16:18:03;9.90;;;1.87;;
67053;SDS011;53960;51.826;5.850;2022-10-16T16:20:30;7.30;;;1.50;;
67053;SDS011;53960;51.826;5.850;2022-10-16T16:22:56;8.63;;;1.67;;
67053;SDS011;53960;51.826;5.850;2022-10-16T16:25:21;8.97;;;2.13;;
67053;SDS011;53960;51.826;5.850;2022-10-16T16:27:47;10.07;;;2.15;;
67053;SDS011;53960;51.826;5.850;2022-10-16T16:30:12;11.20;;;1.90;;
67053;SDS011;53960;51.826;5.850;2022-10-16T16:32:38;11.38;;;2.50;;
67053;SDS011;53960;51.826;5.850;2022-10-16T16:35:03;13.30;;;2.80;;
67053;SDS011;53960;51.826;5.850;2022-10-16T16:37:29;10.18;;;4.25;;
67053;SDS011;53960;51.826;5.850;2022-10-16T16:39:55;16.60;;;6.07;;
67053;SDS011;53960;51.826;5.850;2022-10-16T16:42:23;16.98;;;5.50;;
67053;SDS011;53960;51.826;5.850;2022-10-16T16:44:49;18.67;;;5.15;;
67053;SDS011;53960;51.826;5.850;2022-10-16T16:47:15;12.60;;;4.77;;
67053;SDS011;53960;51.826;5.850;2022-10-16T16:49:40;13.93;;;4.50;;
67053;SDS011;53960;51.826;5.850;2022-10-16T16:52:05;12.23;;;3.83;;
67053;SDS011;53960;51.826;5.850;2022-10-16T16:54:31;16.60;;;4.75;;